This is the latest recevied weather packets stored in our database for station/object DG0PX-12. If no packets are shown the sender has not sent any weather packets the latest 10 day(s).
| Time | Temp. | Humidity | Pressure | Rain* | Wind** | Luminosity | Snow |
|---|---|---|---|---|---|---|---|
| 1787814874 | 27.22° C | 50% | 948.4 hPa | - | - | - | - |
| 1787813974 | 27.22° C | 50% | 948.4 hPa | - | - | - | - |
| 1787813074 | 26.67° C | 51% | 948.4 hPa | - | - | - | - |
| 1787812174 | 25.56° C | 53% | 948.5 hPa | - | - | - | - |
| 1787811274 | 25° C | 55% | 948.5 hPa | - | - | - | - |
| 1787810374 | 25° C | 52% | 948.7 hPa | - | - | - | - |
| 1787809474 | 23.33° C | 60% | 948.4 hPa | - | - | - | - |
| 1787808574 | 22.78° C | 58% | 948.6 hPa | - | - | - | - |
| 1787807674 | 25° C | 51% | 948.7 hPa | - | - | - | - |
| 1787806774 | 23.89° C | 54% | 948.9 hPa | - | - | - | - |
| 1787805874 | 23.33° C | 56% | 948.6 hPa | - | - | - | - |
| 1787804974 | 23.33° C | 54% | 948.7 hPa | - | - | - | - |
| 1787804074 | 23.33° C | 55% | 948.6 hPa | - | - | - | - |
| 1787803174 | 23.33° C | 58% | 948.7 hPa | - | - | - | - |
| 1787802273 | 23.89° C | 54% | 948.6 hPa | - | - | - | - |
| 1787801373 | 23.89° C | 54% | 948.9 hPa | - | - | - | - |
| 1787800473 | 23.89° C | 53% | 948.8 hPa | - | - | - | - |
| 1787799573 | 22.22° C | 61% | 948.6 hPa | - | - | - | - |
| 1787798673 | 23.33° C | 57% | 948.6 hPa | - | - | - | - |
| 1787797773 | 22.22° C | 60% | 948.6 hPa | - | - | - | - |
| 1787796873 | 23.89° C | 54% | 948.7 hPa | - | - | - | - |
| 1787795973 | 22.78° C | 60% | 948.5 hPa | - | - | - | - |
| 1787795073 | 22.22° C | 60% | 948.5 hPa | - | - | - | - |
| 1787794173 | 23.89° C | 56% | 948.5 hPa | - | - | - | - |
| 1787793273 | 22.78° C | 60% | 948.5 hPa | - | - | - | - |
* Rain since midnight (hover to see other rain measurements)
** Current wind speed in m/s (hover to see current wind gust speed)